sensor_id;sensor_type;location;lat;lon;timestamp;P1;durP1;ratioP1;P2;durP2;ratioP2
30243;SDS011;64022;53.652;9.792;2023-04-30T00:01:39;12.47;;;9.90;;
30243;SDS011;64022;53.652;9.792;2023-04-30T00:04:04;14.77;;;10.37;;
30243;SDS011;64022;53.652;9.792;2023-04-30T00:06:30;14.50;;;10.43;;
30243;SDS011;64022;53.652;9.792;2023-04-30T00:08:56;13.60;;;10.13;;
30243;SDS011;64022;53.652;9.792;2023-04-30T00:11:21;12.57;;;10.07;;
30243;SDS011;64022;53.652;9.792;2023-04-30T00:13:47;14.97;;;10.07;;
30243;SDS011;64022;53.652;9.792;2023-04-30T00:16:13;14.20;;;9.37;;
30243;SDS011;64022;53.652;9.792;2023-04-30T00:18:38;13.80;;;9.83;;
30243;SDS011;64022;53.652;9.792;2023-04-30T00:21:04;12.93;;;9.77;;
30243;SDS011;64022;53.652;9.792;2023-04-30T00:23:29;14.07;;;9.57;;
30243;SDS011;64022;53.652;9.792;2023-04-30T00:25:55;13.37;;;9.80;;
30243;SDS011;64022;53.652;9.792;2023-04-30T00:28:20;13.97;;;10.03;;
30243;SDS011;64022;53.652;9.792;2023-04-30T00:30:46;13.50;;;9.83;;
30243;SDS011;64022;53.652;9.792;2023-04-30T00:33:12;13.00;;;9.90;;
30243;SDS011;64022;53.652;9.792;2023-04-30T00:35:37;11.60;;;9.23;;
30243;SDS011;64022;53.652;9.792;2023-04-30T00:38:03;12.40;;;9.87;;
30243;SDS011;64022;53.652;9.792;2023-04-30T00:40:28;12.40;;;8.90;;
30243;SDS011;64022;53.652;9.792;2023-04-30T00:42:54;12.97;;;9.30;;
30243;SDS011;64022;53.652;9.792;2023-04-30T00:45:22;12.10;;;9.17;;
30243;SDS011;64022;53.652;9.792;2023-04-30T00:47:48;14.10;;;9.82;;
30243;SDS011;64022;53.652;9.792;2023-04-30T00:50:14;14.70;;;9.63;;
30243;SDS011;64022;53.652;9.792;2023-04-30T00:52:43;11.80;;;9.10;;
30243;SDS011;64022;53.652;9.792;2023-04-30T00:55:10;14.57;;;9.60;;
30243;SDS011;64022;53.652;9.792;2023-04-30T00:57:37;14.60;;;9.15;;
30243;SDS011;64022;53.652;9.792;2023-04-30T01:00:03;10.98;;;9.07;;
30243;SDS011;64022;53.652;9.792;2023-04-30T01:02:30;13.73;;;9.95;;
30243;SDS011;64022;53.652;9.792;2023-04-30T01:04:56;13.43;;;10.20;;
30243;SDS011;64022;53.652;9.792;2023-04-30T01:07:22;13.27;;;10.23;;
30243;SDS011;64022;53.652;9.792;2023-04-30T01:09:49;12.35;;;9.40;;
30243;SDS011;64022;53.652;9.792;2023-04-30T01:15:13;11.73;;;9.27;;
30243;SDS011;64022;53.652;9.792;2023-04-30T01:17:54;11.80;;;8.85;;
30243;SDS011;64022;53.652;9.792;2023-04-30T01:20:26;13.60;;;10.35;;
30243;SDS011;64022;53.652;9.792;2023-04-30T01:22:54;12.07;;;8.95;;
30243;SDS011;64022;53.652;9.792;2023-04-30T01:28:26;10.88;;;8.48;;
30243;SDS011;64022;53.652;9.792;2023-04-30T01:30:52;13.07;;;9.07;;
30243;SDS011;64022;53.652;9.792;2023-04-30T01:33:18;12.87;;;9.23;;
30243;SDS011;64022;53.652;9.792;2023-04-30T01:41:36;12.63;;;8.93;;
30243;SDS011;64022;53.652;9.792;2023-04-30T01:44:40;11.48;;;8.65;;
30243;SDS011;64022;53.652;9.792;2023-04-30T01:52:57;11.80;;;8.18;;
30243;SDS011;64022;53.652;9.792;2023-04-30T01:55:35;12.15;;;8.48;;
30243;SDS011;64022;53.652;9.792;2023-04-30T01:58:06;12.35;;;8.52;;
30243;SDS011;64022;53.652;9.792;2023-04-30T02:00:36;11.32;;;8.95;;
30243;SDS011;64022;53.652;9.792;2023-04-30T02:03:01;11.50;;;8.57;;
30243;SDS011;64022;53.652;9.792;2023-04-30T02:05:27;10.80;;;8.20;;
30243;SDS011;64022;53.652;9.792;2023-04-30T02:07:53;12.30;;;8.80;;
30243;SDS011;64022;53.652;9.792;2023-04-30T02:10:20;12.93;;;8.67;;
30243;SDS011;64022;53.652;9.792;2023-04-30T02:12:47;10.38;;;8.10;;
30243;SDS011;64022;53.652;9.792;2023-04-30T02:15:12;10.93;;;8.27;;
30243;SDS011;64022;53.652;9.792;2023-04-30T02:17:39;12.52;;;8.63;;
30243;SDS011;64022;53.652;9.792;2023-04-30T02:20:05;12.23;;;9.10;;
30243;SDS011;64022;53.652;9.792;2023-04-30T02:24:57;11.18;;;8.15;;
30243;SDS011;64022;53.652;9.792;2023-04-30T02:27:23;11.10;;;8.23;;
30243;SDS011;64022;53.652;9.792;2023-04-30T02:29:52;11.32;;;8.52;;
30243;SDS011;64022;53.652;9.792;2023-04-30T02:32:18;10.87;;;8.07;;
30243;SDS011;64022;53.652;9.792;2023-04-30T02:34:43;9.00;;;7.80;;
30243;SDS011;64022;53.652;9.792;2023-04-30T02:37:09;9.83;;;7.87;;
30243;SDS011;64022;53.652;9.792;2023-04-30T02:39:35;12.07;;;8.00;;
30243;SDS011;64022;53.652;9.792;2023-04-30T02:42:00;11.47;;;7.70;;
30243;SDS011;64022;53.652;9.792;2023-04-30T02:44:28;11.60;;;7.67;;
30243;SDS011;64022;53.652;9.792;2023-04-30T02:46:53;12.55;;;8.50;;
30243;SDS011;64022;53.652;9.792;2023-04-30T02:49:19;11.53;;;8.63;;
30243;SDS011;64022;53.652;9.792;2023-04-30T02:51:44;8.67;;;7.37;;
30243;SDS011;64022;53.652;9.792;2023-04-30T02:54:10;9.40;;;7.73;;
30243;SDS011;64022;53.652;9.792;2023-04-30T02:56:35;10.60;;;7.70;;
30243;SDS011;64022;53.652;9.792;2023-04-30T02:59:02;9.43;;;7.97;;
30243;SDS011;64022;53.652;9.792;2023-04-30T03:01:28;10.90;;;7.67;;
30243;SDS011;64022;53.652;9.792;2023-04-30T03:03:53;9.93;;;7.50;;
30243;SDS011;64022;53.652;9.792;2023-04-30T03:06:19;10.57;;;8.10;;
30243;SDS011;64022;53.652;9.792;2023-04-30T03:08:44;9.23;;;7.80;;
30243;SDS011;64022;53.652;9.792;2023-04-30T03:11:10;10.27;;;7.93;;
30243;SDS011;64022;53.652;9.792;2023-04-30T03:13:35;8.80;;;7.33;;
30243;SDS011;64022;53.652;9.792;2023-04-30T03:16:02;9.83;;;7.37;;
30243;SDS011;64022;53.652;9.792;2023-04-30T03:18:30;8.82;;;7.05;;
30243;SDS011;64022;53.652;9.792;2023-04-30T03:20:56;10.13;;;7.78;;
30243;SDS011;64022;53.652;9.792;2023-04-30T03:23:22;10.50;;;7.53;;
30243;SDS011;64022;53.652;9.792;2023-04-30T03:25:48;8.00;;;6.57;;
30243;SDS011;64022;53.652;9.792;2023-04-30T03:28:14;10.13;;;7.70;;
30243;SDS011;64022;53.652;9.792;2023-04-30T03:30:40;10.67;;;7.30;;
30243;SDS011;64022;53.652;9.792;2023-04-30T03:33:05;8.70;;;7.07;;
30243;SDS011;64022;53.652;9.792;2023-04-30T03:35:32;9.57;;;7.07;;
30243;SDS011;64022;53.652;9.792;2023-04-30T03:38:01;8.70;;;7.13;;
30243;SDS011;64022;53.652;9.792;2023-04-30T03:40:26;7.88;;;6.85;;
30243;SDS011;64022;53.652;9.792;2023-04-30T03:42:52;7.67;;;6.53;;
30243;SDS011;64022;53.652;9.792;2023-04-30T03:45:18;8.67;;;6.80;;
30243;SDS011;64022;53.652;9.792;2023-04-30T03:47:43;12.73;;;7.57;;
30243;SDS011;64022;53.652;9.792;2023-04-30T03:50:09;11.43;;;7.17;;
30243;SDS011;64022;53.652;9.792;2023-04-30T03:52:35;7.90;;;6.63;;
30243;SDS011;64022;53.652;9.792;2023-04-30T03:55:04;8.40;;;6.63;;
30243;SDS011;64022;53.652;9.792;2023-04-30T03:57:31;11.07;;;7.03;;
30243;SDS011;64022;53.652;9.792;2023-04-30T03:59:57;9.37;;;7.20;;
30243;SDS011;64022;53.652;9.792;2023-04-30T04:02:23;10.57;;;6.60;;
30243;SDS011;64022;53.652;9.792;2023-04-30T04:04:49;8.68;;;6.40;;
30243;SDS011;64022;53.652;9.792;2023-04-30T04:07:15;7.57;;;6.57;;
30243;SDS011;64022;53.652;9.792;2023-04-30T04:09:41;7.57;;;6.03;;
30243;SDS011;64022;53.652;9.792;2023-04-30T04:12:06;9.67;;;6.53;;
30243;SDS011;64022;53.652;9.792;2023-04-30T04:14:32;7.73;;;6.07;;
30243;SDS011;64022;53.652;9.792;2023-04-30T04:16:57;7.10;;;5.80;;
30243;SDS011;64022;53.652;9.792;2023-04-30T04:19:24;9.07;;;6.45;;
30243;SDS011;64022;53.652;9.792;2023-04-30T04:21:50;7.60;;;5.75;;
30243;SDS011;64022;53.652;9.792;2023-04-30T04:24:15;7.03;;;6.07;;
30243;SDS011;64022;53.652;9.792;2023-04-30T04:26:41;6.70;;;5.97;;
30243;SDS011;64022;53.652;9.792;2023-04-30T04:29:06;8.47;;;5.83;;
30243;SDS011;64022;53.652;9.792;2023-04-30T04:31:36;8.23;;;5.68;;
30243;SDS011;64022;53.652;9.792;2023-04-30T04:34:02;6.30;;;5.07;;
30243;SDS011;64022;53.652;9.792;2023-04-30T04:36:29;6.82;;;5.18;;
30243;SDS011;64022;53.652;9.792;2023-04-30T04:38:56;6.00;;;5.15;;
30243;SDS011;64022;53.652;9.792;2023-04-30T04:41:25;7.40;;;5.30;;
30243;SDS011;64022;53.652;9.792;2023-04-30T04:43:54;7.47;;;5.18;;
30243;SDS011;64022;53.652;9.792;2023-04-30T04:46:23;6.35;;;5.10;;
30243;SDS011;64022;53.652;9.792;2023-04-30T04:48:49;6.75;;;4.50;;
30243;SDS011;64022;53.652;9.792;2023-04-30T04:51:14;8.07;;;3.87;;
30243;SDS011;64022;53.652;9.792;2023-04-30T04:53:40;7.30;;;4.27;;
30243;SDS011;64022;53.652;9.792;2023-04-30T04:56:06;9.73;;;4.67;;
30243;SDS011;64022;53.652;9.792;2023-04-30T04:58:31;10.43;;;4.73;;
30243;SDS011;64022;53.652;9.792;2023-04-30T05:00:57;12.53;;;5.50;;
30243;SDS011;64022;53.652;9.792;2023-04-30T05:03:24;12.38;;;5.25;;
30243;SDS011;64022;53.652;9.792;2023-04-30T05:05:50;10.32;;;5.55;;
30243;SDS011;64022;53.652;9.792;2023-04-30T05:08:16;15.33;;;7.30;;
30243;SDS011;64022;53.652;9.792;2023-04-30T05:10:42;16.47;;;9.00;;
30243;SDS011;64022;53.652;9.792;2023-04-30T05:13:08;20.10;;;9.83;;
30243;SDS011;64022;53.652;9.792;2023-04-30T05:15:33;18.67;;;9.80;;
30243;SDS011;64022;53.652;9.792;2023-04-30T05:17:59;15.52;;;9.55;;
30243;SDS011;64022;53.652;9.792;2023-04-30T05:20:24;18.93;;;10.77;;
30243;SDS011;64022;53.652;9.792;2023-04-30T05:22:50;18.60;;;10.43;;
30243;SDS011;64022;53.652;9.792;2023-04-30T05:25:16;21.50;;;10.40;;
30243;SDS011;64022;53.652;9.792;2023-04-30T05:27:42;26.42;;;10.32;;
30243;SDS011;64022;53.652;9.792;2023-04-30T05:30:07;17.47;;;8.37;;
30243;SDS011;64022;53.652;9.792;2023-04-30T05:32:33;16.27;;;8.73;;
30243;SDS011;64022;53.652;9.792;2023-04-30T05:34:59;15.32;;;7.63;;
30243;SDS011;64022;53.652;9.792;2023-04-30T05:37:24;20.53;;;9.10;;
30243;SDS011;64022;53.652;9.792;2023-04-30T05:39:50;15.93;;;7.10;;
30243;SDS011;64022;53.652;9.792;2023-04-30T05:42:17;14.15;;;7.10;;
30243;SDS011;64022;53.652;9.792;2023-04-30T05:44:43;13.95;;;6.80;;
30243;SDS011;64022;53.652;9.792;2023-04-30T05:47:09;12.87;;;6.10;;
30243;SDS011;64022;53.652;9.792;2023-04-30T05:49:34;14.43;;;7.17;;
30243;SDS011;64022;53.652;9.792;2023-04-30T05:52:00;13.05;;;6.40;;
30243;SDS011;64022;53.652;9.792;2023-04-30T05:56:53;16.75;;;6.63;;
30243;SDS011;64022;53.652;9.792;2023-04-30T05:59:18;13.07;;;6.67;;
30243;SDS011;64022;53.652;9.792;2023-04-30T06:01:44;13.25;;;7.38;;
30243;SDS011;64022;53.652;9.792;2023-04-30T06:04:09;16.43;;;6.60;;
30243;SDS011;64022;53.652;9.792;2023-04-30T06:06:35;15.68;;;6.32;;
30243;SDS011;64022;53.652;9.792;2023-04-30T06:09:01;11.82;;;6.30;;
30243;SDS011;64022;53.652;9.792;2023-04-30T06:11:28;12.60;;;6.53;;
30243;SDS011;64022;53.652;9.792;2023-04-30T06:13:54;13.80;;;6.80;;
30243;SDS011;64022;53.652;9.792;2023-04-30T06:16:20;15.07;;;6.53;;
30243;SDS011;64022;53.652;9.792;2023-04-30T06:18:45;12.23;;;6.63;;
30243;SDS011;64022;53.652;9.792;2023-04-30T06:21:11;10.30;;;5.97;;
30243;SDS011;64022;53.652;9.792;2023-04-30T06:23:36;12.60;;;6.57;;
30243;SDS011;64022;53.652;9.792;2023-04-30T06:26:02;11.73;;;5.80;;
30243;SDS011;64022;53.652;9.792;2023-04-30T06:28:27;12.87;;;6.10;;
30243;SDS011;64022;53.652;9.792;2023-04-30T06:30:53;14.27;;;5.97;;
30243;SDS011;64022;53.652;9.792;2023-04-30T06:33:19;11.80;;;6.50;;
30243;SDS011;64022;53.652;9.792;2023-04-30T06:35:45;16.20;;;6.20;;
30243;SDS011;64022;53.652;9.792;2023-04-30T06:38:11;11.52;;;5.90;;
30243;SDS011;64022;53.652;9.792;2023-04-30T06:40:37;10.30;;;6.25;;
30243;SDS011;64022;53.652;9.792;2023-04-30T06:43:03;13.00;;;6.30;;
30243;SDS011;64022;53.652;9.792;2023-04-30T06:45:28;14.13;;;6.47;;
30243;SDS011;64022;53.652;9.792;2023-04-30T06:47:54;10.93;;;6.30;;
30243;SDS011;64022;53.652;9.792;2023-04-30T06:50:20;10.13;;;5.70;;
30243;SDS011;64022;53.652;9.792;2023-04-30T06:52:45;10.37;;;5.60;;
30243;SDS011;64022;53.652;9.792;2023-04-30T06:55:11;12.67;;;6.83;;
30243;SDS011;64022;53.652;9.792;2023-04-30T06:57:37;11.57;;;5.80;;
30243;SDS011;64022;53.652;9.792;2023-04-30T07:00:04;11.70;;;5.50;;
30243;SDS011;64022;53.652;9.792;2023-04-30T07:02:30;9.75;;;6.00;;
30243;SDS011;64022;53.652;9.792;2023-04-30T07:04:56;10.60;;;5.87;;
30243;SDS011;64022;53.652;9.792;2023-04-30T07:07:22;8.87;;;5.37;;
30243;SDS011;64022;53.652;9.792;2023-04-30T07:09:47;14.88;;;5.72;;
30243;SDS011;64022;53.652;9.792;2023-04-30T07:12:13;10.17;;;5.83;;
30243;SDS011;64022;53.652;9.792;2023-04-30T07:14:38;9.80;;;5.13;;
30243;SDS011;64022;53.652;9.792;2023-04-30T07:17:04;11.63;;;5.87;;
30243;SDS011;64022;53.652;9.792;2023-04-30T07:19:30;12.07;;;6.53;;
30243;SDS011;64022;53.652;9.792;2023-04-30T07:21:56;9.30;;;5.35;;
30243;SDS011;64022;53.652;9.792;2023-04-30T07:24:22;11.90;;;5.80;;
30243;SDS011;64022;53.652;9.792;2023-04-30T07:26:47;10.13;;;6.33;;
30243;SDS011;64022;53.652;9.792;2023-04-30T07:29:13;14.40;;;5.80;;
30243;SDS011;64022;53.652;9.792;2023-04-30T07:31:38;8.47;;;5.00;;
30243;SDS011;64022;53.652;9.792;2023-04-30T07:34:04;11.47;;;5.70;;
30243;SDS011;64022;53.652;9.792;2023-04-30T07:36:29;12.10;;;6.67;;
30243;SDS011;64022;53.652;9.792;2023-04-30T07:38:55;10.67;;;5.77;;
30243;SDS011;64022;53.652;9.792;2023-04-30T07:41:21;9.87;;;5.50;;
30243;SDS011;64022;53.652;9.792;2023-04-30T07:43:48;12.55;;;6.05;;
30243;SDS011;64022;53.652;9.792;2023-04-30T07:46:13;11.57;;;6.50;;
30243;SDS011;64022;53.652;9.792;2023-04-30T07:48:39;9.30;;;6.10;;
30243;SDS011;64022;53.652;9.792;2023-04-30T07:51:05;8.57;;;5.23;;
30243;SDS011;64022;53.652;9.792;2023-04-30T07:53:30;8.13;;;5.27;;
30243;SDS011;64022;53.652;9.792;2023-04-30T07:55:56;10.17;;;5.37;;
30243;SDS011;64022;53.652;9.792;2023-04-30T07:58:21;11.37;;;6.37;;
30243;SDS011;64022;53.652;9.792;2023-04-30T08:00:47;9.30;;;5.33;;
30243;SDS011;64022;53.652;9.792;2023-04-30T08:03:12;10.53;;;5.70;;
30243;SDS011;64022;53.652;9.792;2023-04-30T08:05:38;10.60;;;5.57;;
30243;SDS011;64022;53.652;9.792;2023-04-30T08:08:05;7.90;;;5.25;;
30243;SDS011;64022;53.652;9.792;2023-04-30T08:10:30;11.73;;;5.87;;
30243;SDS011;64022;53.652;9.792;2023-04-30T08:12:56;9.83;;;5.03;;
30243;SDS011;64022;53.652;9.792;2023-04-30T08:15:21;9.17;;;5.77;;
30243;SDS011;64022;53.652;9.792;2023-04-30T08:17:48;8.53;;;5.67;;
30243;SDS011;64022;53.652;9.792;2023-04-30T08:20:14;10.73;;;5.18;;
30243;SDS011;64022;53.652;9.792;2023-04-30T08:22:40;10.52;;;5.95;;
30243;SDS011;64022;53.652;9.792;2023-04-30T08:25:06;9.10;;;5.30;;
30243;SDS011;64022;53.652;9.792;2023-04-30T08:27:35;8.98;;;5.57;;
30243;SDS011;64022;53.652;9.792;2023-04-30T08:30:00;9.37;;;5.43;;
30243;SDS011;64022;53.652;9.792;2023-04-30T08:32:26;11.23;;;6.43;;
30243;SDS011;64022;53.652;9.792;2023-04-30T08:34:53;8.65;;;5.15;;
30243;SDS011;64022;53.652;9.792;2023-04-30T08:37:18;6.83;;;4.97;;
30243;SDS011;64022;53.652;9.792;2023-04-30T08:39:44;10.00;;;5.73;;
30243;SDS011;64022;53.652;9.792;2023-04-30T08:42:09;11.47;;;5.53;;
30243;SDS011;64022;53.652;9.792;2023-04-30T08:44:39;12.23;;;5.60;;
30243;SDS011;64022;53.652;9.792;2023-04-30T08:47:07;8.63;;;5.10;;
30243;SDS011;64022;53.652;9.792;2023-04-30T08:49:37;7.95;;;5.30;;
30243;SDS011;64022;53.652;9.792;2023-04-30T08:52:03;11.23;;;5.23;;
30243;SDS011;64022;53.652;9.792;2023-04-30T08:54:29;10.13;;;5.60;;
30243;SDS011;64022;53.652;9.792;2023-04-30T08:56:56;8.00;;;5.03;;
30243;SDS011;64022;53.652;9.792;2023-04-30T08:59:22;10.03;;;5.37;;
30243;SDS011;64022;53.652;9.792;2023-04-30T09:01:47;8.83;;;3.70;;
30243;SDS011;64022;53.652;9.792;2023-04-30T09:04:13;8.57;;;2.87;;
30243;SDS011;64022;53.652;9.792;2023-04-30T09:06:39;8.60;;;2.30;;
30243;SDS011;64022;53.652;9.792;2023-04-30T09:09:11;10.97;;;2.90;;
30243;SDS011;64022;53.652;9.792;2023-04-30T09:11:38;4.97;;;2.22;;
30243;SDS011;64022;53.652;9.792;2023-04-30T09:14:04;4.73;;;2.10;;
30243;SDS011;64022;53.652;9.792;2023-04-30T09:16:43;7.07;;;2.13;;
30243;SDS011;64022;53.652;9.792;2023-04-30T09:21:50;7.03;;;2.85;;
30243;SDS011;64022;53.652;9.792;2023-04-30T09:24:15;7.77;;;2.10;;
30243;SDS011;64022;53.652;9.792;2023-04-30T09:31:36;4.32;;;2.67;;
30243;SDS011;64022;53.652;9.792;2023-04-30T09:34:03;6.88;;;2.42;;
30243;SDS011;64022;53.652;9.792;2023-04-30T09:36:28;4.43;;;1.87;;
30243;SDS011;64022;53.652;9.792;2023-04-30T09:38:55;10.75;;;2.38;;
30243;SDS011;64022;53.652;9.792;2023-04-30T09:41:29;5.35;;;2.60;;
30243;SDS011;64022;53.652;9.792;2023-04-30T09:43:55;6.03;;;2.47;;
30243;SDS011;64022;53.652;9.792;2023-04-30T09:46:28;9.82;;;2.50;;
30243;SDS011;64022;53.652;9.792;2023-04-30T09:48:59;7.45;;;2.83;;
30243;SDS011;64022;53.652;9.792;2023-04-30T09:51:26;6.45;;;2.20;;
30243;SDS011;64022;53.652;9.792;2023-04-30T09:53:52;9.57;;;2.28;;
30243;SDS011;64022;53.652;9.792;2023-04-30T09:56:27;6.40;;;2.17;;
30243;SDS011;64022;53.652;9.792;2023-04-30T09:58:55;6.43;;;2.30;;
30243;SDS011;64022;53.652;9.792;2023-04-30T10:01:21;8.88;;;2.78;;
30243;SDS011;64022;53.652;9.792;2023-04-30T10:03:51;7.47;;;2.38;;
30243;SDS011;64022;53.652;9.792;2023-04-30T10:06:17;6.20;;;2.42;;
30243;SDS011;64022;53.652;9.792;2023-04-30T10:08:46;5.13;;;2.65;;
30243;SDS011;64022;53.652;9.792;2023-04-30T10:11:14;5.57;;;2.28;;
30243;SDS011;64022;53.652;9.792;2023-04-30T10:13:58;7.95;;;2.50;;
30243;SDS011;64022;53.652;9.792;2023-04-30T10:16:36;6.07;;;2.60;;
30243;SDS011;64022;53.652;9.792;2023-04-30T10:19:29;5.38;;;2.38;;
30243;SDS011;64022;53.652;9.792;2023-04-30T10:21:57;6.53;;;2.80;;
30243;SDS011;64022;53.652;9.792;2023-04-30T10:24:25;8.35;;;3.00;;
30243;SDS011;64022;53.652;9.792;2023-04-30T10:26:55;4.25;;;2.30;;
30243;SDS011;64022;53.652;9.792;2023-04-30T10:29:21;6.07;;;2.17;;
30243;SDS011;64022;53.652;9.792;2023-04-30T10:31:47;5.60;;;2.40;;
30243;SDS011;64022;53.652;9.792;2023-04-30T10:34:17;6.30;;;2.47;;
30243;SDS011;64022;53.652;9.792;2023-04-30T10:37:02;7.60;;;2.55;;
30243;SDS011;64022;53.652;9.792;2023-04-30T10:39:35;4.82;;;2.55;;
30243;SDS011;64022;53.652;9.792;2023-04-30T10:42:03;7.72;;;2.85;;
30243;SDS011;64022;53.652;9.792;2023-04-30T10:44:33;6.15;;;2.90;;
30243;SDS011;64022;53.652;9.792;2023-04-30T10:47:00;8.95;;;2.83;;
30243;SDS011;64022;53.652;9.792;2023-04-30T10:51:53;5.53;;;2.05;;
30243;SDS011;64022;53.652;9.792;2023-04-30T10:54:22;5.15;;;2.75;;
30243;SDS011;64022;53.652;9.792;2023-04-30T10:56:51;3.97;;;2.75;;
30243;SDS011;64022;53.652;9.792;2023-04-30T10:59:20;7.03;;;2.70;;
30243;SDS011;64022;53.652;9.792;2023-04-30T11:01:53;5.20;;;2.63;;
30243;SDS011;64022;53.652;9.792;2023-04-30T11:04:23;9.13;;;2.85;;
30243;SDS011;64022;53.652;9.792;2023-04-30T11:09:33;7.60;;;2.75;;
30243;SDS011;64022;53.652;9.792;2023-04-30T11:12:01;8.98;;;2.83;;
30243;SDS011;64022;53.652;9.792;2023-04-30T11:14:30;8.63;;;2.38;;
30243;SDS011;64022;53.652;9.792;2023-04-30T11:16:58;7.00;;;2.50;;
30243;SDS011;64022;53.652;9.792;2023-04-30T11:19:26;7.50;;;2.53;;
30243;SDS011;64022;53.652;9.792;2023-04-30T11:27:33;6.93;;;2.83;;
30243;SDS011;64022;53.652;9.792;2023-04-30T11:30:00;8.10;;;2.67;;
30243;SDS011;64022;53.652;9.792;2023-04-30T11:32:33;4.93;;;2.90;;
30243;SDS011;64022;53.652;9.792;2023-04-30T11:35:01;8.02;;;2.67;;
30243;SDS011;64022;53.652;9.792;2023-04-30T11:37:33;11.18;;;2.92;;
30243;SDS011;64022;53.652;9.792;2023-04-30T11:40:04;5.90;;;2.47;;
30243;SDS011;64022;53.652;9.792;2023-04-30T11:42:34;8.43;;;2.80;;
30243;SDS011;64022;53.652;9.792;2023-04-30T11:45:03;7.82;;;2.53;;
30243;SDS011;64022;53.652;9.792;2023-04-30T11:47:40;5.95;;;2.65;;
30243;SDS011;64022;53.652;9.792;2023-04-30T11:50:12;5.00;;;2.38;;
30243;SDS011;64022;53.652;9.792;2023-04-30T11:52:39;4.03;;;2.45;;
30243;SDS011;64022;53.652;9.792;2023-04-30T11:55:07;5.97;;;2.45;;
30243;SDS011;64022;53.652;9.792;2023-04-30T11:57:41;5.50;;;2.47;;
30243;SDS011;64022;53.652;9.792;2023-04-30T12:00:11;10.00;;;3.20;;
30243;SDS011;64022;53.652;9.792;2023-04-30T12:02:39;11.00;;;3.45;;
30243;SDS011;64022;53.652;9.792;2023-04-30T12:05:16;5.68;;;2.80;;
30243;SDS011;64022;53.652;9.792;2023-04-30T12:10:14;12.70;;;3.35;;
30243;SDS011;64022;53.652;9.792;2023-04-30T12:12:41;11.10;;;3.93;;
30243;SDS011;64022;53.652;9.792;2023-04-30T12:15:11;9.73;;;3.28;;
30243;SDS011;64022;53.652;9.792;2023-04-30T12:17:38;7.45;;;3.00;;
30243;SDS011;64022;53.652;9.792;2023-04-30T12:20:03;6.93;;;3.40;;
30243;SDS011;64022;53.652;9.792;2023-04-30T12:22:29;11.73;;;3.33;;
30243;SDS011;64022;53.652;9.792;2023-04-30T12:24:57;8.27;;;2.90;;
30243;SDS011;64022;53.652;9.792;2023-04-30T12:27:25;8.77;;;2.95;;
30243;SDS011;64022;53.652;9.792;2023-04-30T12:29:51;5.68;;;3.75;;
30243;SDS011;64022;53.652;9.792;2023-04-30T12:32:19;7.35;;;3.50;;
30243;SDS011;64022;53.652;9.792;2023-04-30T12:34:46;9.82;;;3.30;;
30243;SDS011;64022;53.652;9.792;2023-04-30T12:37:15;10.68;;;3.25;;
30243;SDS011;64022;53.652;9.792;2023-04-30T12:39:41;8.35;;;2.80;;
30243;SDS011;64022;53.652;9.792;2023-04-30T12:42:07;4.90;;;2.85;;
30243;SDS011;64022;53.652;9.792;2023-04-30T12:44:41;6.95;;;3.10;;
30243;SDS011;64022;53.652;9.792;2023-04-30T12:47:08;5.72;;;3.13;;
30243;SDS011;64022;53.652;9.792;2023-04-30T12:49:34;7.03;;;3.60;;
30243;SDS011;64022;53.652;9.792;2023-04-30T12:52:04;7.45;;;3.50;;
30243;SDS011;64022;53.652;9.792;2023-04-30T12:54:32;7.00;;;3.28;;
30243;SDS011;64022;53.652;9.792;2023-04-30T12:57:03;5.60;;;3.05;;
30243;SDS011;64022;53.652;9.792;2023-04-30T12:59:29;8.55;;;3.40;;
30243;SDS011;64022;53.652;9.792;2023-04-30T13:02:06;8.93;;;3.00;;
30243;SDS011;64022;53.652;9.792;2023-04-30T13:04:36;6.28;;;3.00;;
30243;SDS011;64022;53.652;9.792;2023-04-30T13:07:03;7.55;;;3.50;;
30243;SDS011;64022;53.652;9.792;2023-04-30T13:09:30;9.23;;;3.50;;
30243;SDS011;64022;53.652;9.792;2023-04-30T13:11:59;7.05;;;3.05;;
30243;SDS011;64022;53.652;9.792;2023-04-30T13:14:25;6.93;;;3.10;;
30243;SDS011;64022;53.652;9.792;2023-04-30T13:16:51;6.27;;;3.63;;
30243;SDS011;64022;53.652;9.792;2023-04-30T13:19:17;5.03;;;3.00;;
30243;SDS011;64022;53.652;9.792;2023-04-30T13:21:43;7.07;;;3.40;;
30243;SDS011;64022;53.652;9.792;2023-04-30T13:24:09;6.23;;;3.47;;
30243;SDS011;64022;53.652;9.792;2023-04-30T13:26:35;8.27;;;4.07;;
30243;SDS011;64022;53.652;9.792;2023-04-30T13:29:00;7.67;;;3.37;;
30243;SDS011;64022;53.652;9.792;2023-04-30T13:31:26;6.73;;;3.60;;
30243;SDS011;64022;53.652;9.792;2023-04-30T13:33:52;9.67;;;4.20;;
30243;SDS011;64022;53.652;9.792;2023-04-30T13:36:19;6.78;;;3.58;;
30243;SDS011;64022;53.652;9.792;2023-04-30T13:38:45;5.90;;;3.60;;
30243;SDS011;64022;53.652;9.792;2023-04-30T13:41:10;9.20;;;3.65;;
30243;SDS011;64022;53.652;9.792;2023-04-30T13:43:36;8.73;;;3.50;;
30243;SDS011;64022;53.652;9.792;2023-04-30T13:46:06;5.90;;;3.03;;
30243;SDS011;64022;53.652;9.792;2023-04-30T13:48:33;7.75;;;3.65;;
30243;SDS011;64022;53.652;9.792;2023-04-30T13:50:59;10.90;;;3.30;;
30243;SDS011;64022;53.652;9.792;2023-04-30T13:53:25;9.40;;;4.23;;
30243;SDS011;64022;53.652;9.792;2023-04-30T13:55:51;13.20;;;4.27;;
30243;SDS011;64022;53.652;9.792;2023-04-30T13:58:17;9.53;;;3.50;;
30243;SDS011;64022;53.652;9.792;2023-04-30T14:00:42;8.37;;;3.27;;
30243;SDS011;64022;53.652;9.792;2023-04-30T14:03:08;11.10;;;3.63;;
30243;SDS011;64022;53.652;9.792;2023-04-30T14:05:35;7.20;;;3.60;;
30243;SDS011;64022;53.652;9.792;2023-04-30T14:08:01;6.00;;;3.53;;
30243;SDS011;64022;53.652;9.792;2023-04-30T14:10:28;11.80;;;3.90;;
30243;SDS011;64022;53.652;9.792;2023-04-30T14:12:53;6.33;;;3.27;;
30243;SDS011;64022;53.652;9.792;2023-04-30T14:15:19;4.13;;;3.13;;
30243;SDS011;64022;53.652;9.792;2023-04-30T14:17:45;14.37;;;4.67;;
30243;SDS011;64022;53.652;9.792;2023-04-30T14:20:10;12.87;;;4.67;;
30243;SDS011;64022;53.652;9.792;2023-04-30T14:22:36;8.63;;;4.20;;
30243;SDS011;64022;53.652;9.792;2023-04-30T14:25:02;8.95;;;4.30;;
30243;SDS011;64022;53.652;9.792;2023-04-30T14:27:29;13.20;;;3.72;;
30243;SDS011;64022;53.652;9.792;2023-04-30T14:29:55;7.27;;;3.60;;
30243;SDS011;64022;53.652;9.792;2023-04-30T14:32:23;6.37;;;3.53;;
30243;SDS011;64022;53.652;9.792;2023-04-30T14:34:49;8.48;;;3.35;;
30243;SDS011;64022;53.652;9.792;2023-04-30T14:37:15;9.33;;;3.60;;
30243;SDS011;64022;53.652;9.792;2023-04-30T14:39:41;8.00;;;4.47;;
30243;SDS011;64022;53.652;9.792;2023-04-30T14:42:06;6.65;;;3.42;;
30243;SDS011;64022;53.652;9.792;2023-04-30T14:44:32;4.35;;;3.05;;
30243;SDS011;64022;53.652;9.792;2023-04-30T14:46:58;8.17;;;4.30;;
30243;SDS011;64022;53.652;9.792;2023-04-30T14:49:24;14.33;;;7.23;;
30243;SDS011;64022;53.652;9.792;2023-04-30T14:51:50;10.00;;;4.05;;
30243;SDS011;64022;53.652;9.792;2023-04-30T14:54:15;14.53;;;4.60;;
30243;SDS011;64022;53.652;9.792;2023-04-30T14:56:41;10.10;;;4.67;;
30243;SDS011;64022;53.652;9.792;2023-04-30T14:59:08;5.07;;;3.28;;
30243;SDS011;64022;53.652;9.792;2023-04-30T15:01:34;9.75;;;3.47;;
30243;SDS011;64022;53.652;9.792;2023-04-30T15:03:59;7.65;;;3.75;;
30243;SDS011;64022;53.652;9.792;2023-04-30T15:06:26;9.77;;;3.80;;
30243;SDS011;64022;53.652;9.792;2023-04-30T15:08:51;9.87;;;4.07;;
30243;SDS011;64022;53.652;9.792;2023-04-30T15:11:17;8.33;;;3.17;;
30243;SDS011;64022;53.652;9.792;2023-04-30T15:13:42;7.90;;;3.30;;
30243;SDS011;64022;53.652;9.792;2023-04-30T15:16:08;10.67;;;3.37;;
30243;SDS011;64022;53.652;9.792;2023-04-30T15:18:33;7.50;;;3.67;;
30243;SDS011;64022;53.652;9.792;2023-04-30T15:20:59;9.43;;;3.70;;
30243;SDS011;64022;53.652;9.792;2023-04-30T15:23:25;10.38;;;3.53;;